sensor_id;sensor_type;location;lat;lon;timestamp;pressure;altitude;pressure_sealevel;temperature;humidity
49999;BME280;68071;45.062;7.356;2024-02-04T00:00:10;95801.44;;;8.61;47.25
49999;BME280;68071;45.062;7.356;2024-02-04T00:03:17;95796.47;;;8.74;46.40
49999;BME280;68071;45.062;7.356;2024-02-04T00:06:21;95786.44;;;7.83;51.78
49999;BME280;68071;45.062;7.356;2024-02-04T00:09:24;95790.38;;;7.85;49.43
49999;BME280;68071;45.062;7.356;2024-02-04T00:12:31;95788.66;;;8.42;46.23
49999;BME280;68071;45.062;7.356;2024-02-04T00:15:35;95787.50;;;8.46;48.48
49999;BME280;68071;45.062;7.356;2024-02-04T00:18:39;95778.81;;;8.82;45.35
49999;BME280;68071;45.062;7.356;2024-02-04T00:21:43;95780.56;;;8.18;48.01
49999;BME280;68071;45.062;7.356;2024-02-04T00:24:47;95775.03;;;8.53;46.41
49999;BME280;68071;45.062;7.356;2024-02-04T00:27:51;95770.28;;;8.15;48.13
49999;BME280;68071;45.062;7.356;2024-02-04T00:30:55;95769.91;;;7.52;51.28
49999;BME280;68071;45.062;7.356;2024-02-04T00:34:00;95767.78;;;8.41;44.96
49999;BME280;68071;45.062;7.356;2024-02-04T00:37:04;95770.06;;;7.63;51.07
49999;BME280;68071;45.062;7.356;2024-02-04T00:40:09;95774.09;;;8.83;43.68
49999;BME280;68071;45.062;7.356;2024-02-04T00:43:14;95781.88;;;8.32;48.04
49999;BME280;68071;45.062;7.356;2024-02-04T00:46:17;95782.56;;;8.63;47.15
49999;BME280;68071;45.062;7.356;2024-02-04T00:49:22;95786.69;;;10.17;38.92
49999;BME280;68071;45.062;7.356;2024-02-04T00:52:25;95782.84;;;9.55;44.52
49999;BME280;68071;45.062;7.356;2024-02-04T00:55:30;95789.84;;;8.82;44.89
49999;BME280;68071;45.062;7.356;2024-02-04T00:58:34;95790.38;;;9.02;42.66
49999;BME280;68071;45.062;7.356;2024-02-04T01:01:38;95794.06;;;7.97;49.42
49999;BME280;68071;45.062;7.356;2024-02-04T01:04:42;95781.69;;;8.52;45.42
49999;BME280;68071;45.062;7.356;2024-02-04T01:07:46;95780.19;;;7.86;50.31
49999;BME280;68071;45.062;7.356;2024-02-04T01:10:50;95792.16;;;8.01;48.13
49999;BME280;68071;45.062;7.356;2024-02-04T01:13:57;95786.81;;;7.51;51.77
49999;BME280;68071;45.062;7.356;2024-02-04T01:17:01;95783.56;;;8.44;46.29
49999;BME280;68071;45.062;7.356;2024-02-04T01:20:05;95789.81;;;8.03;50.59
49999;BME280;68071;45.062;7.356;2024-02-04T01:23:09;95785.19;;;8.11;50.32
49999;BME280;68071;45.062;7.356;2024-02-04T01:26:13;95793.41;;;7.77;49.85
49999;BME280;68071;45.062;7.356;2024-02-04T01:29:17;95800.38;;;8.73;46.36
49999;BME280;68071;45.062;7.356;2024-02-04T01:32:21;95791.53;;;9.57;42.15
49999;BME280;68071;45.062;7.356;2024-02-04T01:35:25;95798.34;;;8.62;48.17
49999;BME280;68071;45.062;7.356;2024-02-04T01:38:29;95802.16;;;8.51;45.09
49999;BME280;68071;45.062;7.356;2024-02-04T01:41:33;95787.94;;;7.46;54.20
49999;BME280;68071;45.062;7.356;2024-02-04T01:44:37;95785.59;;;7.21;56.61
49999;BME280;68071;45.062;7.356;2024-02-04T01:47:41;95786.81;;;7.24;53.34
49999;BME280;68071;45.062;7.356;2024-02-04T01:50:46;95797.97;;;7.62;51.31
49999;BME280;68071;45.062;7.356;2024-02-04T01:53:52;95783.47;;;8.74;43.93
49999;BME280;68071;45.062;7.356;2024-02-04T01:56:58;95786.34;;;7.18;52.82
49999;BME280;68071;45.062;7.356;2024-02-04T02:00:03;95788.78;;;8.49;47.16
49999;BME280;68071;45.062;7.356;2024-02-04T02:03:11;95770.47;;;9.23;45.25
49999;BME280;68071;45.062;7.356;2024-02-04T02:06:15;95769.91;;;9.03;45.55
49999;BME280;68071;45.062;7.356;2024-02-04T02:09:21;95765.44;;;8.43;46.44
49999;BME280;68071;45.062;7.356;2024-02-04T02:12:59;95761.69;;;8.58;46.30
49999;BME280;68071;45.062;7.356;2024-02-04T02:16:11;95768.19;;;7.71;50.89
49999;BME280;68071;45.062;7.356;2024-02-04T02:19:46;95754.22;;;8.59;47.57
49999;BME280;68071;45.062;7.356;2024-02-04T02:23:17;95759.25;;;8.50;47.55
49999;BME280;68071;45.062;7.356;2024-02-04T02:26:25;95774.31;;;8.25;45.68
49999;BME280;68071;45.062;7.356;2024-02-04T02:29:30;95772.16;;;7.43;53.84
49999;BME280;68071;45.062;7.356;2024-02-04T02:32:34;95770.13;;;8.01;47.35
49999;BME280;68071;45.062;7.356;2024-02-04T02:35:38;95761.78;;;7.33;53.02
49999;BME280;68071;45.062;7.356;2024-02-04T02:42:01;95769.28;;;7.97;48.40
49999;BME280;68071;45.062;7.356;2024-02-04T02:45:07;95770.66;;;7.49;51.00
49999;BME280;68071;45.062;7.356;2024-02-04T02:48:13;95791.34;;;7.66;52.10
49999;BME280;68071;45.062;7.356;2024-02-04T02:51:17;95785.19;;;8.11;45.52
49999;BME280;68071;45.062;7.356;2024-02-04T02:54:22;95786.19;;;8.71;43.79
49999;BME280;68071;45.062;7.356;2024-02-04T02:57:26;95780.75;;;6.61;58.73
49999;BME280;68071;45.062;7.356;2024-02-04T03:00:30;95777.88;;;7.92;50.56
49999;BME280;68071;45.062;7.356;2024-02-04T03:03:34;95771.06;;;6.94;53.65
49999;BME280;68071;45.062;7.356;2024-02-04T03:06:38;95777.34;;;8.13;45.89
49999;BME280;68071;45.062;7.356;2024-02-04T03:09:42;95766.81;;;7.84;51.16
49999;BME280;68071;45.062;7.356;2024-02-04T03:12:47;95778.56;;;8.19;45.95
49999;BME280;68071;45.062;7.356;2024-02-04T03:15:51;95780.56;;;7.84;50.52
49999;BME280;68071;45.062;7.356;2024-02-04T03:18:55;95772.81;;;7.63;49.92
49999;BME280;68071;45.062;7.356;2024-02-04T03:21:59;95773.94;;;7.59;49.40
49999;BME280;68071;45.062;7.356;2024-02-04T03:25:04;95764.06;;;6.73;58.44
49999;BME280;68071;45.062;7.356;2024-02-04T03:28:08;95761.94;;;7.74;50.47
49999;BME280;68071;45.062;7.356;2024-02-04T03:31:11;95751.47;;;6.02;63.24
49999;BME280;68071;45.062;7.356;2024-02-04T03:34:16;95745.47;;;6.40;59.88
49999;BME280;68071;45.062;7.356;2024-02-04T03:37:20;95742.66;;;6.36;59.29
49999;BME280;68071;45.062;7.356;2024-02-04T03:40:24;95745.09;;;6.91;50.34
49999;BME280;68071;45.062;7.356;2024-02-04T03:43:28;95741.84;;;6.82;53.71
49999;BME280;68071;45.062;7.356;2024-02-04T03:46:32;95723.66;;;6.74;56.26
49999;BME280;68071;45.062;7.356;2024-02-04T03:49:37;95715.19;;;6.59;57.01
49999;BME280;68071;45.062;7.356;2024-02-04T03:52:41;95719.91;;;6.86;56.29
49999;BME280;68071;45.062;7.356;2024-02-04T03:55:47;95721.34;;;5.86;66.37
49999;BME280;68071;45.062;7.356;2024-02-04T03:58:51;95708.81;;;6.78;53.68
49999;BME280;68071;45.062;7.356;2024-02-04T04:01:55;95694.69;;;6.80;51.99
49999;BME280;68071;45.062;7.356;2024-02-04T04:04:59;95703.16;;;7.90;49.65
49999;BME280;68071;45.062;7.356;2024-02-04T04:08:04;95703.88;;;9.25;43.53
49999;BME280;68071;45.062;7.356;2024-02-04T04:11:09;95697.19;;;9.22;46.13
49999;BME280;68071;45.062;7.356;2024-02-04T04:14:13;95695.25;;;9.34;43.56
49999;BME280;68071;45.062;7.356;2024-02-04T04:17:17;95695.06;;;8.98;44.91
49999;BME280;68071;45.062;7.356;2024-02-04T04:20:21;95691.66;;;8.63;46.82
49999;BME280;68071;45.062;7.356;2024-02-04T04:23:25;95679.84;;;8.17;48.25
49999;BME280;68071;45.062;7.356;2024-02-04T04:26:29;95687.84;;;7.24;53.05
49999;BME280;68071;45.062;7.356;2024-02-04T04:29:33;95682.84;;;8.05;49.26
49999;BME280;68071;45.062;7.356;2024-02-04T04:32:37;95682.34;;;7.92;50.08
49999;BME280;68071;45.062;7.356;2024-02-04T04:35:41;95685.22;;;8.03;49.25
49999;BME280;68071;45.062;7.356;2024-02-04T04:38:46;95694.16;;;7.24;54.55
49999;BME280;68071;45.062;7.356;2024-02-04T04:41:53;95693.53;;;8.10;46.91
49999;BME280;68071;45.062;7.356;2024-02-04T04:44:57;95691.00;;;8.81;44.10
49999;BME280;68071;45.062;7.356;2024-02-04T04:48:02;95698.22;;;6.54;58.67
49999;BME280;68071;45.062;7.356;2024-02-04T04:51:08;95684.63;;;7.86;48.39
49999;BME280;68071;45.062;7.356;2024-02-04T04:54:12;95686.63;;;7.21;52.82
49999;BME280;68071;45.062;7.356;2024-02-04T04:57:17;95692.44;;;6.12;63.01
49999;BME280;68071;45.062;7.356;2024-02-04T05:00:21;95693.31;;;6.93;52.64
49999;BME280;68071;45.062;7.356;2024-02-04T05:03:25;95693.75;;;6.69;54.55
49999;BME280;68071;45.062;7.356;2024-02-04T05:06:29;95697.66;;;7.55;49.33
49999;BME280;68071;45.062;7.356;2024-02-04T05:09:33;95691.00;;;5.56;67.61
49999;BME280;68071;45.062;7.356;2024-02-04T05:12:37;95692.59;;;8.37;45.98
49999;BME280;68071;45.062;7.356;2024-02-04T05:15:41;95693.84;;;8.43;44.76
49999;BME280;68071;45.062;7.356;2024-02-04T05:18:44;95682.63;;;8.66;42.34
49999;BME280;68071;45.062;7.356;2024-02-04T05:21:48;95686.75;;;8.45;44.51
49999;BME280;68071;45.062;7.356;2024-02-04T05:24:52;95688.44;;;8.12;46.37
49999;BME280;68071;45.062;7.356;2024-02-04T05:27:56;95676.69;;;8.64;45.01
49999;BME280;68071;45.062;7.356;2024-02-04T05:31:04;95690.53;;;7.85;48.89
49999;BME280;68071;45.062;7.356;2024-02-04T05:34:08;95700.81;;;7.92;49.42
49999;BME280;68071;45.062;7.356;2024-02-04T05:37:12;95685.81;;;7.51;46.96
49999;BME280;68071;45.062;7.356;2024-02-04T05:40:16;95699.50;;;7.78;47.99
49999;BME280;68071;45.062;7.356;2024-02-04T05:43:22;95690.56;;;6.93;54.94
49999;BME280;68071;45.062;7.356;2024-02-04T05:46:26;95704.06;;;8.01;45.61
49999;BME280;68071;45.062;7.356;2024-02-04T05:49:31;95708.25;;;10.62;40.07
49999;BME280;68071;45.062;7.356;2024-02-04T05:52:35;95703.47;;;9.19;45.93
49999;BME280;68071;45.062;7.356;2024-02-04T05:55:39;95718.84;;;8.27;47.45
49999;BME280;68071;45.062;7.356;2024-02-04T05:58:43;95719.88;;;6.12;62.36
49999;BME280;68071;45.062;7.356;2024-02-04T06:01:47;95720.84;;;7.54;49.70
49999;BME280;68071;45.062;7.356;2024-02-04T06:04:51;95735.94;;;8.02;47.73
49999;BME280;68071;45.062;7.356;2024-02-04T06:07:55;95745.41;;;8.46;43.92
49999;BME280;68071;45.062;7.356;2024-02-04T06:10:59;95706.94;;;9.97;41.74
49999;BME280;68071;45.062;7.356;2024-02-04T06:14:03;95727.88;;;11.58;34.64
49999;BME280;68071;45.062;7.356;2024-02-04T06:17:08;95731.56;;;10.82;38.40
49999;BME280;68071;45.062;7.356;2024-02-04T06:20:12;95734.69;;;9.34;41.72
49999;BME280;68071;45.062;7.356;2024-02-04T06:23:16;95759.72;;;9.11;42.06
49999;BME280;68071;45.062;7.356;2024-02-04T06:26:22;95776.59;;;8.99;40.90
49999;BME280;68071;45.062;7.356;2024-02-04T06:29:26;95781.00;;;8.62;43.19
49999;BME280;68071;45.062;7.356;2024-02-04T06:32:30;95779.88;;;9.19;40.01
49999;BME280;68071;45.062;7.356;2024-02-04T06:35:34;95786.13;;;8.26;43.41
49999;BME280;68071;45.062;7.356;2024-02-04T06:38:37;95791.81;;;8.40;45.87
49999;BME280;68071;45.062;7.356;2024-02-04T06:41:42;95793.31;;;8.34;45.42
49999;BME280;68071;45.062;7.356;2024-02-04T06:44:46;95802.38;;;7.70;47.55
49999;BME280;68071;45.062;7.356;2024-02-04T06:47:50;95798.06;;;8.37;44.91
49999;BME280;68071;45.062;7.356;2024-02-04T06:50:54;95804.22;;;7.93;48.54
49999;BME280;68071;45.062;7.356;2024-02-04T06:53:58;95817.50;;;7.83;46.97
49999;BME280;68071;45.062;7.356;2024-02-04T06:57:02;95827.19;;;7.20;47.90
49999;BME280;68071;45.062;7.356;2024-02-04T07:00:07;95837.38;;;6.46;52.50
49999;BME280;68071;45.062;7.356;2024-02-04T07:03:14;95843.97;;;8.60;43.64
49999;BME280;68071;45.062;7.356;2024-02-04T07:06:18;95849.66;;;8.78;43.86
49999;BME280;68071;45.062;7.356;2024-02-04T07:09:23;95843.28;;;10.59;35.66
49999;BME280;68071;45.062;7.356;2024-02-04T07:12:27;95847.31;;;11.16;35.53
49999;BME280;68071;45.062;7.356;2024-02-04T07:15:31;95837.38;;;10.72;39.38
49999;BME280;68071;45.062;7.356;2024-02-04T07:18:34;95843.50;;;8.92;45.02
49999;BME280;68071;45.062;7.356;2024-02-04T07:21:38;95857.31;;;8.99;44.49
49999;BME280;68071;45.062;7.356;2024-02-04T07:24:42;95859.28;;;8.57;44.69
49999;BME280;68071;45.062;7.356;2024-02-04T07:27:46;95866.22;;;8.13;47.28
49999;BME280;68071;45.062;7.356;2024-02-04T07:30:51;95863.63;;;9.48;39.35
49999;BME280;68071;45.062;7.356;2024-02-04T07:33:55;95859.97;;;11.14;34.90
49999;BME280;68071;45.062;7.356;2024-02-04T07:36:58;95848.09;;;10.92;38.13
49999;BME280;68071;45.062;7.356;2024-02-04T07:40:03;95850.09;;;11.31;36.65
49999;BME280;68071;45.062;7.356;2024-02-04T07:43:09;95867.84;;;10.90;41.32
49999;BME280;68071;45.062;7.356;2024-02-04T07:46:13;95862.91;;;10.25;43.68
49999;BME280;68071;45.062;7.356;2024-02-04T07:49:17;95858.25;;;10.44;42.80
49999;BME280;68071;45.062;7.356;2024-02-04T07:52:21;95856.19;;;10.26;45.31
49999;BME280;68071;45.062;7.356;2024-02-04T07:55:25;95864.41;;;10.12;47.26
49999;BME280;68071;45.062;7.356;2024-02-04T07:58:29;95846.34;;;10.36;43.52
49999;BME280;68071;45.062;7.356;2024-02-04T08:01:33;95855.50;;;10.44;46.30
49999;BME280;68071;45.062;7.356;2024-02-04T08:04:40;95865.81;;;10.69;48.72
49999;BME280;68071;45.062;7.356;2024-02-04T08:07:45;95852.84;;;10.98;46.79
49999;BME280;68071;45.062;7.356;2024-02-04T08:10:49;95855.16;;;10.64;50.04
49999;BME280;68071;45.062;7.356;2024-02-04T08:13:53;95861.53;;;10.97;48.05
49999;BME280;68071;45.062;7.356;2024-02-04T08:16:57;95863.16;;;11.19;50.78
49999;BME280;68071;45.062;7.356;2024-02-04T08:20:01;95861.16;;;11.56;46.57
49999;BME280;68071;45.062;7.356;2024-02-04T08:23:07;95857.97;;;11.69;47.77
49999;BME280;68071;45.062;7.356;2024-02-04T08:26:12;95847.94;;;12.36;40.27
49999;BME280;68071;45.062;7.356;2024-02-04T08:29:16;95862.09;;;12.49;42.12
49999;BME280;68071;45.062;7.356;2024-02-04T08:32:20;95881.16;;;12.44;44.48
49999;BME280;68071;45.062;7.356;2024-02-04T08:35:25;95875.25;;;12.31;44.32
49999;BME280;68071;45.062;7.356;2024-02-04T08:38:28;95885.16;;;12.32;43.92
49999;BME280;68071;45.062;7.356;2024-02-04T08:41:32;95891.88;;;12.34;44.38
49999;BME280;68071;45.062;7.356;2024-02-04T08:44:36;95890.28;;;12.37;43.72
49999;BME280;68071;45.062;7.356;2024-02-04T08:47:41;95898.59;;;12.37;45.68
49999;BME280;68071;45.062;7.356;2024-02-04T08:50:45;95905.41;;;12.10;44.66
49999;BME280;68071;45.062;7.356;2024-02-04T08:53:49;95905.41;;;12.03;44.78
49999;BME280;68071;45.062;7.356;2024-02-04T08:56:54;95903.44;;;12.15;45.56
49999;BME280;68071;45.062;7.356;2024-02-04T08:59:58;95899.84;;;12.29;40.98
49999;BME280;68071;45.062;7.356;2024-02-04T09:03:02;95906.63;;;13.02;37.53
49999;BME280;68071;45.062;7.356;2024-02-04T09:06:06;95902.38;;;12.83;36.64
49999;BME280;68071;45.062;7.356;2024-02-04T09:09:10;95899.53;;;12.94;37.54
49999;BME280;68071;45.062;7.356;2024-02-04T09:12:14;95897.91;;;12.96;37.76
49999;BME280;68071;45.062;7.356;2024-02-04T09:15:18;95899.84;;;13.07;38.53
49999;BME280;68071;45.062;7.356;2024-02-04T09:18:22;95901.66;;;13.35;39.76
49999;BME280;68071;45.062;7.356;2024-02-04T09:21:25;95896.09;;;13.35;40.71
49999;BME280;68071;45.062;7.356;2024-02-04T09:24:29;95892.16;;;13.32;39.36
49999;BME280;68071;45.062;7.356;2024-02-04T09:27:34;95887.84;;;13.24;40.03
49999;BME280;68071;45.062;7.356;2024-02-04T09:30:38;95886.69;;;13.18;40.13
49999;BME280;68071;45.062;7.356;2024-02-04T09:33:42;95895.78;;;13.22;39.65
49999;BME280;68071;45.062;7.356;2024-02-04T09:36:46;95899.63;;;13.43;40.58
49999;BME280;68071;45.062;7.356;2024-02-04T09:39:50;95885.59;;;13.65;40.89
49999;BME280;68071;45.062;7.356;2024-02-04T09:42:56;95889.13;;;13.69;39.03
49999;BME280;68071;45.062;7.356;2024-02-04T09:46:00;95889.13;;;13.65;38.49
49999;BME280;68071;45.062;7.356;2024-02-04T09:49:05;95899.56;;;13.96;38.83
49999;BME280;68071;45.062;7.356;2024-02-04T09:52:09;95902.41;;;14.30;37.91
49999;BME280;68071;45.062;7.356;2024-02-04T09:55:15;95904.81;;;14.28;36.46
49999;BME280;68071;45.062;7.356;2024-02-04T09:58:20;95907.16;;;14.30;36.00
49999;BME280;68071;45.062;7.356;2024-02-04T10:01:26;95911.25;;;14.21;36.48
49999;BME280;68071;45.062;7.356;2024-02-04T10:04:30;95919.88;;;14.31;39.09
49999;BME280;68071;45.062;7.356;2024-02-04T10:07:34;95922.63;;;14.34;37.83
49999;BME280;68071;45.062;7.356;2024-02-04T10:10:38;95925.75;;;14.40;39.01
49999;BME280;68071;45.062;7.356;2024-02-04T10:13:47;95922.88;;;14.47;38.88
49999;BME280;68071;45.062;7.356;2024-02-04T10:16:52;95925.78;;;14.75;40.29
49999;BME280;68071;45.062;7.356;2024-02-04T10:19:57;95930.59;;;14.71;44.23
49999;BME280;68071;45.062;7.356;2024-02-04T10:23:03;95934.22;;;14.64;41.33
49999;BME280;68071;45.062;7.356;2024-02-04T10:26:07;95939.25;;;14.76;36.84
49999;BME280;68071;45.062;7.356;2024-02-04T10:29:11;95934.84;;;14.79;37.35
49999;BME280;68071;45.062;7.356;2024-02-04T10:32:15;95938.00;;;14.81;39.09
49999;BME280;68071;45.062;7.356;2024-02-04T10:35:24;95931.63;;;14.84;37.01
49999;BME280;68071;45.062;7.356;2024-02-04T10:38:29;95928.44;;;14.82;38.03
49999;BME280;68071;45.062;7.356;2024-02-04T10:41:34;95931.66;;;15.11;36.00
49999;BME280;68071;45.062;7.356;2024-02-04T10:44:39;95926.97;;;15.05;37.24
49999;BME280;68071;45.062;7.356;2024-02-04T10:47:55;95926.56;;;15.34;35.37
49999;BME280;68071;45.062;7.356;2024-02-04T10:51:01;95926.16;;;15.35;35.66
49999;BME280;68071;45.062;7.356;2024-02-04T10:54:07;95920.94;;;15.37;39.33
49999;BME280;68071;45.062;7.356;2024-02-04T10:57:16;95926.19;;;15.86;35.92
49999;BME280;68071;45.062;7.356;2024-02-04T11:00:23;95922.44;;;16.17;33.05
49999;BME280;68071;45.062;7.356;2024-02-04T11:03:29;95916.34;;;16.26;32.26
49999;BME280;68071;45.062;7.356;2024-02-04T11:06:33;95914.41;;;16.23;32.44
49999;BME280;68071;45.062;7.356;2024-02-04T11:09:39;95903.13;;;16.50;32.27
49999;BME280;68071;45.062;7.356;2024-02-04T11:12:44;95897.66;;;16.43;34.13
49999;BME280;68071;45.062;7.356;2024-02-04T11:15:49;95894.47;;;16.44;34.80
49999;BME280;68071;45.062;7.356;2024-02-04T11:23:14;95894.91;;;16.19;37.17
49999;BME280;68071;45.062;7.356;2024-02-04T11:26:23;95889.34;;;16.19;32.21
49999;BME280;68071;45.062;7.356;2024-02-04T11:29:29;95885.41;;;16.37;32.09
49999;BME280;68071;45.062;7.356;2024-02-04T11:32:35;95875.75;;;16.21;33.26
49999;BME280;68071;45.062;7.356;2024-02-04T11:35:39;95894.03;;;16.26;33.86
49999;BME280;68071;45.062;7.356;2024-02-04T11:38:43;95882.88;;;16.46;31.64
49999;BME280;68071;45.062;7.356;2024-02-04T11:41:48;95882.53;;;16.64;31.35
49999;BME280;68071;45.062;7.356;2024-02-04T11:45:06;95872.00;;;16.72;31.12
49999;BME280;68071;45.062;7.356;2024-02-04T11:48:11;95877.16;;;16.90;31.04
49999;BME280;68071;45.062;7.356;2024-02-04T11:51:15;95870.38;;;16.91;31.64
49999;BME280;68071;45.062;7.356;2024-02-04T11:54:20;95868.81;;;17.27;31.08
49999;BME280;68071;45.062;7.356;2024-02-04T11:57:25;95859.03;;;17.35;30.39
49999;BME280;68071;45.062;7.356;2024-02-04T12:00:34;95858.69;;;17.49;30.90
49999;BME280;68071;45.062;7.356;2024-02-04T12:03:39;95847.34;;;17.57;30.56
49999;BME280;68071;45.062;7.356;2024-02-04T12:06:43;95836.84;;;17.77;29.64
49999;BME280;68071;45.062;7.356;2024-02-04T12:09:48;95844.53;;;17.73;29.44
49999;BME280;68071;45.062;7.356;2024-02-04T12:12:53;95835.53;;;17.65;29.37
49999;BME280;68071;45.062;7.356;2024-02-04T12:15:57;95826.00;;;17.79;30.23
49999;BME280;68071;45.062;7.356;2024-02-04T12:19:04;95825.56;;;17.81;29.71
49999;BME280;68071;45.062;7.356;2024-02-04T12:22:08;95816.72;;;17.99;28.41
49999;BME280;68071;45.062;7.356;2024-02-04T12:25:14;95817.69;;;17.92;27.31
49999;BME280;68071;45.062;7.356;2024-02-04T12:28:18;95807.84;;;17.71;28.45
49999;BME280;68071;45.062;7.356;2024-02-04T12:31:27;95799.28;;;17.62;28.08
49999;BME280;68071;45.062;7.356;2024-02-04T12:34:35;95798.09;;;18.09;28.36
49999;BME280;68071;45.062;7.356;2024-02-04T12:37:51;95798.44;;;17.94;30.24
49999;BME280;68071;45.062;7.356;2024-02-04T12:41:01;95791.81;;;17.88;29.29
49999;BME280;68071;45.062;7.356;2024-02-04T12:44:06;95793.06;;;18.17;28.43
49999;BME280;68071;45.062;7.356;2024-02-04T12:47:10;95780.00;;;17.97;28.48
49999;BME280;68071;45.062;7.356;2024-02-04T12:50:14;95790.06;;;17.94;28.24
49999;BME280;68071;45.062;7.356;2024-02-04T12:53:20;95774.63;;;17.73;27.17
49999;BME280;68071;45.062;7.356;2024-02-04T12:56:24;95776.16;;;17.45;28.46
49999;BME280;68071;45.062;7.356;2024-02-04T12:59:33;95769.97;;;17.37;27.90
49999;BME280;68071;45.062;7.356;2024-02-04T13:02:41;95761.78;;;17.30;28.04
49999;BME280;68071;45.062;7.356;2024-02-04T13:05:45;95766.06;;;17.18;28.06
49999;BME280;68071;45.062;7.356;2024-02-04T13:08:54;95764.19;;;17.61;28.73
49999;BME280;68071;45.062;7.356;2024-02-04T13:12:08;95767.69;;;17.65;27.95
49999;BME280;68071;45.062;7.356;2024-02-04T13:15:12;95757.75;;;17.47;29.10
49999;BME280;68071;45.062;7.356;2024-02-04T13:18:17;95756.06;;;17.50;29.20
49999;BME280;68071;45.062;7.356;2024-02-04T13:21:21;95761.59;;;17.20;30.45
49999;BME280;68071;45.062;7.356;2024-02-04T13:24:25;95750.00;;;17.38;30.86
49999;BME280;68071;45.062;7.356;2024-02-04T13:27:29;95748.84;;;17.36;31.67
49999;BME280;68071;45.062;7.356;2024-02-04T13:30:33;95749.31;;;17.18;31.70
49999;BME280;68071;45.062;7.356;2024-02-04T13:33:40;95747.38;;;17.15;32.19
49999;BME280;68071;45.062;7.356;2024-02-04T13:36:45;95743.38;;;17.16;32.33
49999;BME280;68071;45.062;7.356;2024-02-04T13:39:49;95743.78;;;17.14;30.80
49999;BME280;68071;45.062;7.356;2024-02-04T13:42:54;95744.69;;;17.28;31.15
49999;BME280;68071;45.062;7.356;2024-02-04T13:45:59;95738.22;;;17.14;31.13
49999;BME280;68071;45.062;7.356;2024-02-04T13:49:03;95739.72;;;17.19;29.97
49999;BME280;68071;45.062;7.356;2024-02-04T13:52:07;95736.75;;;17.56;33.82
49999;BME280;68071;45.062;7.356;2024-02-04T13:55:11;95739.84;;;17.74;32.32
49999;BME280;68071;45.062;7.356;2024-02-04T13:58:15;95729.22;;;17.69;33.73
49999;BME280;68071;45.062;7.356;2024-02-04T14:01:22;95725.16;;;17.57;32.21
49999;BME280;68071;45.062;7.356;2024-02-04T14:04:26;95734.03;;;17.68;28.91
49999;BME280;68071;45.062;7.356;2024-02-04T14:07:32;95732.50;;;17.80;28.18
49999;BME280;68071;45.062;7.356;2024-02-04T14:10:37;95734.38;;;17.71;30.19
49999;BME280;68071;45.062;7.356;2024-02-04T14:13:41;95737.56;;;17.86;29.66
49999;BME280;68071;45.062;7.356;2024-02-04T14:16:45;95732.22;;;17.91;30.14
49999;BME280;68071;45.062;7.356;2024-02-04T14:19:50;95738.44;;;17.82;30.65
49999;BME280;68071;45.062;7.356;2024-02-04T14:22:55;95735.72;;;17.66;31.66
49999;BME280;68071;45.062;7.356;2024-02-04T14:26:00;95748.25;;;17.28;31.87
49999;BME280;68071;45.062;7.356;2024-02-04T14:29:04;95741.63;;;17.38;31.03
49999;BME280;68071;45.062;7.356;2024-02-04T14:32:08;95740.66;;;17.29;31.73
49999;BME280;68071;45.062;7.356;2024-02-04T14:35:12;95739.00;;;17.15;33.18
49999;BME280;68071;45.062;7.356;2024-02-04T14:38:17;95739.78;;;17.15;31.90
49999;BME280;68071;45.062;7.356;2024-02-04T14:41:21;95734.47;;;17.04;32.47
49999;BME280;68071;45.062;7.356;2024-02-04T14:44:25;95740.28;;;16.93;32.16
49999;BME280;68071;45.062;7.356;2024-02-04T14:47:32;95741.84;;;16.94;32.26
49999;BME280;68071;45.062;7.356;2024-02-04T14:50:36;95750.94;;;17.15;31.08
49999;BME280;68071;45.062;7.356;2024-02-04T14:53:40;95754.63;;;16.96;31.21
49999;BME280;68071;45.062;7.356;2024-02-04T14:56:44;95758.53;;;16.82;32.15
49999;BME280;68071;45.062;7.356;2024-02-04T14:59:50;95752.72;;;16.72;33.65
49999;BME280;68071;45.062;7.356;2024-02-04T15:02:54;95754.38;;;16.53;32.85
49999;BME280;68071;45.062;7.356;2024-02-04T15:05:58;95746.88;;;16.50;32.90
49999;BME280;68071;45.062;7.356;2024-02-04T15:09:02;95753.84;;;16.58;32.40
49999;BME280;68071;45.062;7.356;2024-02-04T15:12:09;95748.44;;;16.51;33.63
49999;BME280;68071;45.062;7.356;2024-02-04T15:15:14;95755.47;;;16.39;33.47
49999;BME280;68071;45.062;7.356;2024-02-04T15:18:18;95745.31;;;16.29;34.43
49999;BME280;68071;45.062;7.356;2024-02-04T15:21:23;95745.03;;;16.23;36.07
49999;BME280;68071;45.062;7.356;2024-02-04T15:24:28;95759.19;;;16.32;38.11
49999;BME280;68071;45.062;7.356;2024-02-04T15:27:33;95763.59;;;15.93;42.85
49999;BME280;68071;45.062;7.356;2024-02-04T15:30:38;95759.34;;;15.61;42.98
49999;BME280;68071;45.062;7.356;2024-02-04T15:33:42;95765.19;;;15.23;43.78
49999;BME280;68071;45.062;7.356;2024-02-04T15:36:46;95769.88;;;14.47;46.23
49999;BME280;68071;45.062;7.356;2024-02-04T15:39:51;95768.31;;;13.81;48.77
49999;BME280;68071;45.062;7.356;2024-02-04T15:42:56;95763.69;;;13.70;50.44
49999;BME280;68071;45.062;7.356;2024-02-04T15:46:03;95756.94;;;13.29;52.16
49999;BME280;68071;45.062;7.356;2024-02-04T15:49:11;95757.75;;;12.14;54.56
49999;BME280;68071;45.062;7.356;2024-02-04T15:52:17;95764.03;;;12.29;51.75
49999;BME280;68071;45.062;7.356;2024-02-04T15:55:21;95774.50;;;12.59;50.54
49999;BME280;68071;45.062;7.356;2024-02-04T15:58:26;95760.91;;;12.12;50.68
49999;BME280;68071;45.062;7.356;2024-02-04T16:01:34;95760.81;;;12.34;51.36
49999;BME280;68071;45.062;7.356;2024-02-04T16:04:39;95772.19;;;11.50;55.11
49999;BME280;68071;45.062;7.356;2024-02-04T16:07:44;95774.91;;;12.61;46.57
49999;BME280;68071;45.062;7.356;2024-02-04T16:10:48;95767.00;;;11.71;51.28
49999;BME280;68071;45.062;7.356;2024-02-04T16:14:00;95777.53;;;12.83;46.25
49999;BME280;68071;45.062;7.356;2024-02-04T16:17:07;95771.06;;;13.00;47.42
49999;BME280;68071;45.062;7.356;2024-02-04T16:20:15;95770.41;;;12.15;51.10
49999;BME280;68071;45.062;7.356;2024-02-04T16:23:21;95769.06;;;10.90;56.85
49999;BME280;68071;45.062;7.356;2024-02-04T16:26:25;95778.72;;;12.15;49.09
49999;BME280;68071;45.062;7.356;2024-02-04T16:29:29;95773.44;;;11.06;59.37
49999;BME280;68071;45.062;7.356;2024-02-04T16:32:33;95780.53;;;10.64;60.31